Time;durP1;ratioP1;P1;durP2;ratioP2;P2;SDS_P1;SDS_P2;PMS_P1;PMS_P2;Temp;Humidity;BMP_temperature;BMP_pressure;BME280_temperature;BME280_humidity;BME280_pressure;Samples;Min_cycle;Max_cycle;Signal;HPM_P1;HPM_P2
2023/01/16 00:04:07;;;;;;;11.98;10.88;;;;;;;4.08;100.00;99639.53;10214509;28;20049;-68
2023/01/16 00:09:04;;;;;;;12.35;11.15;;;;;;;4.08;100.00;99628.69;10240558;28;20119;-68
2023/01/16 00:14:01;;;;;;;12.57;11.45;;;;;;;4.08;100.00;99632.19;10208406;28;20100;-68
2023/01/16 00:18:58;;;;;;;13.15;12.05;;;;;;;4.09;100.00;99623.00;10227778;28;20058;-68
2023/01/16 00:23:56;;;;;;;14.20;12.52;;;;;;;4.13;100.00;99617.78;10174775;28;20049;-68
2023/01/16 00:28:53;;;;;;;15.75;12.52;;;;;;;4.13;100.00;99620.47;10207834;28;20450;-67
2023/01/16 00:33:50;;;;;;;13.40;12.20;;;;;;;4.14;100.00;99600.47;10173124;28;20054;-68
2023/01/16 00:38:46;;;;;;;15.85;13.40;;;;;;;4.14;100.00;99592.34;10196971;28;20054;-67
2023/01/16 00:43:42;;;;;;;15.63;13.55;;;;;;;4.18;100.00;99596.84;10170645;28;20137;-68
2023/01/16 00:48:39;;;;;;;13.65;12.27;;;;;;;4.23;100.00;99598.63;10190551;28;20683;-68
2023/01/16 00:53:35;;;;;;;12.82;10.23;;;;;;;4.24;100.00;99589.41;10169501;28;20080;-67
2023/01/16 00:58:32;;;;;;;14.68;12.07;;;;;;;4.25;100.00;99593.72;10239616;28;20515;-68
2023/01/16 01:03:29;;;;;;;10.45;9.50;;;;;;;4.26;100.00;99592.63;10221558;28;20046;-68
2023/01/16 01:08:25;;;;;;;9.80;8.90;;;;;;;4.29;100.00;99583.88;10239166;28;20076;-67
2023/01/16 01:13:22;;;;;;;10.70;9.63;;;;;;;4.28;100.00;99579.59;10184703;28;20058;-68
2023/01/16 01:18:18;;;;;;;10.95;8.77;;;;;;;4.31;100.00;99573.56;10238531;28;20057;-67
2023/01/16 01:23:14;;;;;;;9.88;8.75;;;;;;;4.31;100.00;99578.97;10165645;28;20472;-68
2023/01/16 01:28:11;;;;;;;10.57;8.77;;;;;;;4.34;100.00;99567.56;10220545;28;20452;-67
2023/01/16 01:33:09;;;;;;;8.98;7.88;;;;;;;4.28;100.00;99560.66;10159239;28;20049;-67
2023/01/16 01:38:06;;;;;;;10.50;9.50;;;;;;;4.22;100.00;99551.03;10208122;28;20549;-67
2023/01/16 01:43:02;;;;;;;12.10;9.13;;;;;;;4.24;100.00;99551.53;10133583;28;20057;-67
2023/01/16 01:48:10;;;;;;;10.15;8.98;;;;;;;4.25;100.00;99542.31;10147840;28;20046;-67
2023/01/16 01:53:13;;;;;;;8.70;7.90;;;;;;;4.26;100.00;99543.91;10145637;28;20049;-67
2023/01/16 01:58:10;;;;;;;9.30;8.50;;;;;;;4.23;100.00;99533.72;10222503;28;20133;-67
2023/01/16 02:08:04;;;;;;;7.13;6.43;;;;;;;4.25;100.00;99523.38;11296394;22;20054;-69
2023/01/16 02:13:01;;;;;;;8.38;6.82;;;;;;;4.23;100.00;99506.66;10195708;28;20132;-69
2023/01/16 02:23:32;;;;;;;9.98;7.40;;;;;;;4.22;100.00;99496.91;10197088;28;20050;-70
2023/01/16 02:28:57;;;;;;;8.30;7.28;;;;;;;4.23;100.00;99493.13;10154628;28;20066;-69
2023/01/16 02:34:30;;;;;;;9.88;8.57;;;;;;;4.19;100.00;99478.59;10168725;28;20520;-69
2023/01/16 02:39:33;;;;;;;8.67;7.77;;;;;;;4.13;100.00;99490.63;10235137;28;20055;-69
2023/01/16 02:44:49;;;;;;;;;;;;;;;4.12;100.00;99478.22;10206916;28;20518;-69
2023/01/16 02:49:53;;;;;;;9.07;8.27;;;;;;;4.02;100.00;99462.22;10234672;28;19939;-69
2023/01/16 02:55:17;;;;;;;9.70;8.85;;;;;;;3.86;100.00;99465.25;10194223;28;20469;-71
2023/01/16 03:00:19;;;;;;;10.02;9.10;;;;;;;3.77;100.00;99467.06;10193414;28;20038;-69
2023/01/16 03:05:16;;;;;;;9.73;8.70;;;;;;;3.87;100.00;99461.44;10194237;28;20048;-69
2023/01/16 03:10:33;;;;;;;9.60;8.70;;;;;;;3.89;100.00;99453.03;10168592;28;20080;-71
2023/01/16 03:15:39;;;;;;;8.80;7.97;;;;;;;3.94;100.00;99445.59;10199011;28;20053;-70
2023/01/16 03:20:48;;;;;;;9.65;8.65;;;;;;;3.96;100.00;99437.97;10194415;28;20054;-70
2023/01/16 03:26:09;;;;;;;9.10;8.10;;;;;;;3.96;100.00;99426.38;10198287;28;20046;-71
2023/01/16 03:31:10;;;;;;;9.15;8.38;;;;;;;3.93;100.00;99422.38;10193601;28;20075;-71
2023/01/16 03:36:14;;;;;;;9.55;8.85;;;;;;;3.87;100.00;99407.34;10170686;28;20054;-71
2023/01/16 03:41:15;;;;;;;9.68;8.75;;;;;;;3.86;100.00;99410.38;10152753;28;20086;-71
2023/01/16 03:46:17;;;;;;;10.88;9.40;;;;;;;3.75;100.00;99404.41;10206549;28;20045;-71
2023/01/16 03:51:24;;;;;;;9.93;9.05;;;;;;;3.75;100.00;99388.16;10218758;28;20054;-71
2023/01/16 03:56:29;;;;;;;11.10;10.13;;;;;;;3.73;100.00;99384.97;10219092;28;20132;-71
2023/01/16 04:01:40;;;;;;;10.02;9.05;;;;;;;3.76;100.00;99384.34;10211626;28;20052;-71
2023/01/16 04:06:54;;;;;;;8.77;8.00;;;;;;;3.73;100.00;99382.25;10222008;28;20485;-71
2023/01/16 04:11:52;;;;;;;9.45;8.73;;;;;;;3.75;100.00;99377.34;10181856;28;20474;-71
2023/01/16 04:16:50;;;;;;;11.13;9.20;;;;;;;3.79;100.00;99359.44;10172540;28;20554;-71
2023/01/16 04:21:47;;;;;;;8.88;8.05;;;;;;;3.84;100.00;99353.91;10156699;28;20046;-70
2023/01/16 04:26:43;;;;;;;9.65;8.73;;;;;;;3.90;100.00;99352.69;10196087;28;20050;-70
2023/01/16 04:31:40;;;;;;;12.68;8.90;;;;;;;3.93;100.00;99335.03;10191741;28;20553;-70
2023/01/16 04:36:36;;;;;;;10.00;7.07;;;;;;;3.97;100.00;99336.81;10192585;28;20065;-70
2023/01/16 04:41:35;;;;;;;10.95;7.97;;;;;;;3.95;100.00;99328.22;10166853;28;20499;-70
2023/01/16 04:46:32;;;;;;;8.80;7.97;;;;;;;3.92;100.00;99318.03;10215383;28;20057;-70
2023/01/16 04:51:30;;;;;;;9.05;8.35;;;;;;;3.96;100.00;99318.19;10197239;28;20565;-70
2023/01/16 04:56:26;;;;;;;8.07;7.47;;;;;;;3.96;100.00;99305.47;10187181;28;20073;-70
2023/01/16 05:01:23;;;;;;;8.95;7.75;;;;;;;3.90;100.00;99295.91;10199261;28;20142;-70
2023/01/16 05:06:20;;;;;;;9.10;8.13;;;;;;;3.92;100.00;99303.69;10223020;28;20652;-71
2023/01/16 05:11:16;;;;;;;12.25;8.35;;;;;;;3.91;100.00;99292.06;10230947;28;20046;-70
2023/01/16 05:16:13;;;;;;;7.90;7.28;;;;;;;3.98;100.00;99288.94;10196012;28;20136;-70
2023/01/16 05:21:09;;;;;;;8.63;7.75;;;;;;;4.03;100.00;99274.50;10189400;28;20548;-70
2023/01/16 05:26:06;;;;;;;8.95;8.15;;;;;;;4.03;100.00;99274.50;10207902;28;20506;-70
2023/01/16 05:31:03;;;;;;;9.52;7.68;;;;;;;3.95;100.00;99271.44;10216252;28;20487;-71
2023/01/16 05:35:59;;;;;;;10.60;9.15;;;;;;;3.90;100.00;99274.25;10205811;28;20132;-71
2023/01/16 05:40:56;;;;;;;10.57;9.48;;;;;;;4.02;100.00;99262.09;10186599;28;20070;-70
2023/01/16 05:45:53;;;;;;;9.10;8.40;;;;;;;3.92;100.00;99253.13;10203535;28;20053;-70
2023/01/16 05:50:50;;;;;;;9.30;8.52;;;;;;;3.84;100.00;99248.44;10165538;28;20503;-70
2023/01/16 05:55:47;;;;;;;10.07;9.20;;;;;;;3.78;100.00;99241.56;10201691;28;20168;-70
2023/01/16 06:00:43;;;;;;;9.52;8.65;;;;;;;3.76;100.00;99249.19;10159241;28;20134;-70
2023/01/16 06:05:40;;;;;;;10.85;8.52;;;;;;;3.78;100.00;99238.84;10214894;28;20037;-70
2023/01/16 06:10:36;;;;;;;14.65;9.23;;;;;;;3.72;100.00;99218.47;10157254;28;20125;-71
2023/01/16 06:15:33;;;;;;;9.55;8.82;;;;;;;3.80;100.00;99223.13;10185052;28;20066;-70
2023/01/16 06:20:29;;;;;;;9.60;8.82;;;;;;;3.73;100.00;99217.38;10156639;28;20042;-70
2023/01/16 06:25:26;;;;;;;10.75;9.60;;;;;;;3.71;100.00;99219.56;10184674;28;20137;-70
2023/01/16 06:30:22;;;;;;;10.65;9.65;;;;;;;3.73;100.00;99211.94;10196324;28;20052;-70
2023/01/16 06:35:19;;;;;;;10.57;9.60;;;;;;;3.76;100.00;99208.63;10177043;28;20484;-70
2023/01/16 06:40:15;;;;;;;11.30;10.30;;;;;;;3.78;100.00;99198.31;10156001;28;20054;-71
2023/01/16 06:45:12;;;;;;;11.55;10.70;;;;;;;3.72;100.00;99194.94;10190581;28;20081;-71
2023/01/16 06:50:09;;;;;;;13.50;10.52;;;;;;;3.67;100.00;99197.00;10235152;28;20053;-70
2023/01/16 06:55:05;;;;;;;11.65;10.50;;;;;;;3.68;100.00;99193.16;10197844;28;20119;-70
2023/01/16 07:00:04;;;;;;;11.13;10.10;;;;;;;3.66;100.00;99179.16;10235433;28;20136;-70
2023/01/16 07:05:00;;;;;;;10.65;9.73;;;;;;;3.72;100.00;99175.22;10190257;28;20057;-69
2023/01/16 07:09:56;;;;;;;11.15;10.15;;;;;;;3.70;100.00;99170.13;10216798;28;20131;-70
2023/01/16 07:25:34;;;;;;;12.70;11.80;;;;;;;3.61;100.00;99157.66;10192675;28;20099;-70
2023/01/16 07:30:30;;;;;;;12.68;11.50;;;;;;;3.57;100.00;99155.59;10196913;28;20070;-70
2023/01/16 07:35:27;;;;;;;12.15;11.25;;;;;;;3.49;100.00;99148.22;10192627;28;20041;-71
2023/01/16 07:40:23;;;;;;;13.32;12.15;;;;;;;3.34;100.00;99143.19;10184543;28;20042;-70
2023/01/16 07:45:20;;;;;;;13.02;12.02;;;;;;;3.19;100.00;99143.59;10190634;28;20060;-70
2023/01/16 07:50:16;;;;;;;12.75;11.85;;;;;;;3.10;100.00;99138.91;10157358;28;20054;-71
2023/01/16 07:55:13;;;;;;;13.65;12.65;;;;;;;3.06;100.00;99134.41;10161310;28;20054;-70
2023/01/16 08:00:12;;;;;;;13.55;12.55;;;;;;;2.98;100.00;99138.66;10153427;28;20093;-70
2023/01/16 08:05:09;;;;;;;13.50;12.43;;;;;;;2.94;100.00;99116.06;10154442;28;20137;-70
2023/01/16 08:10:06;;;;;;;13.10;12.10;;;;;;;2.87;100.00;99105.69;10152796;28;20447;-70
2023/01/16 08:15:03;;;;;;;14.07;13.07;;;;;;;2.84;100.00;99105.53;10202417;28;20557;-70
2023/01/16 08:19:59;;;;;;;13.73;12.82;;;;;;;2.85;100.00;99101.69;10233717;28;20058;-70
2023/01/16 08:24:55;;;;;;;13.95;12.52;;;;;;;2.82;100.00;99102.31;10188139;28;20108;-70
2023/01/16 08:29:54;;;;;;;11.75;10.93;;;;;;;2.79;100.00;99102.94;10221039;28;20136;-70
2023/01/16 08:34:50;;;;;;;12.05;11.02;;;;;;;2.83;100.00;99098.50;10195582;28;20050;-70
2023/01/16 08:39:46;;;;;;;11.20;10.50;;;;;;;2.84;100.00;99078.53;10198154;28;20048;-70
2023/01/16 08:55:13;;;;;;;11.43;10.52;;;;;;;3.05;100.00;99057.22;10188774;28;20054;-70
2023/01/16 09:00:12;;;;;;;11.20;10.02;;;;;;;3.10;100.00;99049.78;10158496;28;20056;-70
2023/01/16 09:05:08;;;;;;;11.20;10.10;;;;;;;3.15;100.00;99032.66;10168456;28;20441;-71
2023/01/16 09:10:05;;;;;;;10.40;9.70;;;;;;;3.22;100.00;99037.63;10159037;28;20058;-70
2023/01/16 09:15:04;;;;;;;10.38;9.50;;;;;;;3.27;100.00;99024.78;10179144;28;20061;-70
2023/01/16 09:20:00;;;;;;;10.70;9.80;;;;;;;3.25;100.00;99015.38;10199094;28;20060;-70
2023/01/16 09:24:57;;;;;;;10.20;9.60;;;;;;;3.28;100.00;98995.88;10194276;28;20049;-70
2023/01/16 09:29:53;;;;;;;10.88;10.00;;;;;;;3.29;100.00;98986.66;10195516;28;20042;-70
2023/01/16 09:34:50;;;;;;;10.20;9.15;;;;;;;3.33;100.00;98982.22;10187008;28;20076;-70
2023/01/16 09:39:46;;;;;;;9.75;8.85;;;;;;;3.43;100.00;98992.72;10232573;28;20418;-70
2023/01/16 09:44:47;;;;;;;10.07;8.85;;;;;;;3.59;100.00;98974.19;10184714;28;20483;-70
2023/01/16 09:49:51;;;;;;;9.48;8.65;;;;;;;3.64;100.00;98959.75;10228855;28;20043;-70
2023/01/16 10:00:08;;;;;;;8.82;7.97;;;;;;;3.90;100.00;98948.97;10160980;28;20070;-70
2023/01/16 10:05:05;;;;;;;7.63;7.03;;;;;;;3.96;100.00;98940.38;10229004;28;20135;-70
2023/01/16 10:10:04;;;;;;;8.73;7.93;;;;;;;4.06;100.00;98933.06;10177451;28;20077;-70
2023/01/16 10:15:16;;;;;;;8.35;7.57;;;;;;;4.20;100.00;98922.88;10189583;28;20092;-71
2023/01/16 10:20:43;;;;;;;8.35;6.82;;;;;;;4.20;100.00;98912.06;10155666;28;20057;-70
2023/01/16 10:25:54;;;;;;;7.32;6.70;;;;;;;4.10;100.00;98898.88;10160943;28;20070;-70
2023/01/16 10:30:55;;;;;;;7.75;7.05;;;;;;;4.23;100.00;98906.03;10181589;28;20530;-70
2023/01/16 10:35:53;;;;;;;7.28;6.68;;;;;;;4.23;100.00;98889.81;10206350;28;20060;-70
2023/01/16 10:40:54;;;;;;;7.35;6.75;;;;;;;4.29;100.00;98872.28;10197698;28;20050;-70
2023/01/16 10:51:11;;;;;;;8.02;7.40;;;;;;;4.42;100.00;98860.47;10192950;28;20455;-70
2023/01/16 10:56:07;;;;;;;6.95;6.35;;;;;;;4.70;100.00;98849.25;10183411;28;20042;-70
2023/01/16 11:01:24;;;;;;;8.10;7.50;;;;;;;4.78;100.00;98818.66;10179420;28;20691;-70
2023/01/16 11:06:27;;;;;;;8.77;7.90;;;;;;;4.74;100.00;98804.16;10194976;28;20047;-70
2023/01/16 11:22:00;;;;;;;9.15;8.45;;;;;;;4.76;100.00;98755.13;10154341;28;20416;-70
2023/01/16 11:26:58;;;;;;;8.55;7.90;;;;;;;4.77;100.00;98735.81;10171556;28;20084;-69
2023/01/16 11:32:04;;;;;;;7.85;7.22;;;;;;;4.78;100.00;98723.88;10153936;28;20423;-70
2023/01/16 11:37:04;;;;;;;8.25;7.55;;;;;;;4.85;100.00;98697.09;10218797;28;20052;-70
2023/01/16 11:47:26;;;;;;;7.70;7.10;;;;;;;4.92;100.00;98655.13;10223724;28;20080;-70
2023/01/16 11:52:29;;;;;;;8.23;7.53;;;;;;;5.01;100.00;98636.88;10193596;28;20053;-70
2023/01/16 11:57:52;;;;;;;7.72;6.90;;;;;;;5.01;100.00;98632.28;10224597;28;20042;-69
2023/01/16 12:02:55;;;;;;;7.28;6.68;;;;;;;5.07;100.00;98608.50;10151892;28;20054;-70
2023/01/16 12:08:11;;;;;;;7.38;6.70;;;;;;;5.26;100.00;98597.94;10202222;28;20129;-70
2023/01/16 12:18:54;;;;;;;7.55;6.30;;;;;;;5.44;100.00;98555.19;10189383;28;20070;-70
2023/01/16 12:24:17;;;;;;;6.75;6.05;;;;;;;5.52;100.00;98542.66;10173420;28;20076;-70
2023/01/16 12:29:24;;;;;;;12.57;8.98;;;;;;;5.53;100.00;98517.16;10167578;28;20046;-71
2023/01/16 12:34:53;;;;;;;6.40;5.90;;;;;;;5.39;100.00;98509.34;10188420;28;20042;-71
2023/01/16 12:39:53;;;;;;;7.13;5.97;;;;;;;5.31;100.00;98495.91;10199916;28;20088;-70
2023/01/16 12:45:13;;;;;;;8.43;5.95;;;;;;;5.21;100.00;98483.56;10200644;28;20049;-70
2023/01/16 12:50:29;;;;;;;6.50;5.75;;;;;;;5.25;100.00;98474.44;10240327;28;20053;-71
2023/01/16 12:55:54;;;;;;;8.27;6.20;;;;;;;5.18;100.00;98449.81;10220281;28;20045;-70
2023/01/16 13:01:12;;;;;;;7.45;5.70;;;;;;;5.11;100.00;98436.06;10226704;28;20049;-70
2023/01/16 13:06:19;;;;;;;6.25;5.50;;;;;;;5.06;100.00;98430.84;10224163;28;20052;-70
2023/01/16 13:17:11;;;;;;;6.78;5.70;;;;;;;5.08;100.00;98415.03;10193844;28;20046;-70
2023/01/16 13:22:27;;;;;;;6.90;5.60;;;;;;;5.10;100.00;98401.94;10162057;28;20093;-70
2023/01/16 13:27:37;;;;;;;9.18;5.90;;;;;;;5.18;100.00;98403.78;10229553;28;20049;-71
2023/01/16 13:32:41;;;;;;;6.20;5.72;;;;;;;5.12;100.00;98404.34;10160208;28;20058;-70
2023/01/16 13:37:57;;;;;;;6.30;5.72;;;;;;;5.08;100.00;98404.19;10224548;28;20057;-70
2023/01/16 13:45:47;;;;;;;6.53;5.93;;;;;;;5.02;100.00;98389.31;10158165;28;20097;-70
2023/01/16 13:48:21;;;;;;;7.55;6.07;;;;;;;4.95;100.00;98378.25;10203241;28;20668;-70
2023/01/16 13:53:22;;;;;;;7.13;6.45;;;;;;;4.83;100.00;98360.88;10183453;28;20072;-70
2023/01/16 13:58:22;;;;;;;6.20;5.60;;;;;;;4.83;100.00;98355.44;10177761;28;20064;-71
2023/01/16 14:03:23;;;;;;;6.50;5.90;;;;;;;4.78;100.00;98342.16;10177530;28;20116;-70
2023/01/16 14:13:43;;;;;;;8.33;6.07;;;;;;;4.82;100.00;98329.50;10195717;28;20055;-70
2023/01/16 14:18:45;;;;;;;6.40;5.60;;;;;;;4.69;100.00;98327.09;10173309;28;20057;-71
2023/01/16 14:24:02;;;;;;;6.85;6.07;;;;;;;4.69;100.00;98311.69;10155286;28;20074;-70
2023/01/16 14:29:01;;;;;;;6.70;6.20;;;;;;;4.69;100.00;98314.38;10155970;28;20124;-70
2023/01/16 14:33:58;;;;;;;6.57;5.97;;;;;;;4.72;100.00;98305.59;10184498;28;20042;-70
2023/01/16 14:38:55;;;;;;;6.68;6.03;;;;;;;4.65;100.00;98294.53;10195369;28;20499;-70
2023/01/16 14:55:16;;;;;;;7.85;5.95;;;;;;;4.70;100.00;98297.00;10187643;28;20038;-70
2023/01/16 15:00:18;;;;;;;7.75;6.93;;;;;;;4.63;100.00;98280.53;10150903;28;20042;-71
2023/01/16 15:05:52;;;;;;;6.53;5.73;;;;;;;4.72;100.00;98262.28;10154747;28;20078;-70
2023/01/16 15:10:50;;;;;;;6.78;6.03;;;;;;;4.63;100.00;98253.47;10114889;28;20053;-70
2023/01/16 15:15:50;;;;;;;6.88;5.45;;;;;;;4.67;100.00;98248.19;10157166;28;20129;-71
2023/01/16 15:26:03;;;;;;;7.97;6.32;;;;;;;4.63;100.00;98223.69;10118785;28;20063;-70
2023/01/16 15:31:05;;;;;;;6.93;6.22;;;;;;;4.60;100.00;98224.38;10114672;28;20109;-70
2023/01/16 15:36:01;;;;;;;7.20;6.65;;;;;;;4.57;100.00;98216.94;10162274;28;20056;-70
2023/01/16 15:40:58;;;;;;;9.43;6.80;;;;;;;4.54;100.00;98212.97;10186626;28;20472;-70
2023/01/16 15:46:32;;;;;;;7.05;6.38;;;;;;;4.51;100.00;98202.06;10166751;28;20050;-70
2023/01/16 15:51:29;;;;;;;7.82;6.88;;;;;;;4.42;100.00;98194.84;10171799;28;20060;-70
2023/01/16 15:56:39;;;;;;;7.97;7.28;;;;;;;4.31;100.00;98182.88;10180330;28;20137;-71
2023/01/16 16:01:50;;;;;;;7.60;6.88;;;;;;;4.29;100.00;98179.72;10140295;28;20053;-70
2023/01/16 16:06:47;;;;;;;8.55;6.95;;;;;;;4.31;100.00;98169.34;10196454;28;20062;-70
2023/01/16 16:11:53;;;;;;;7.63;6.93;;;;;;;4.38;100.00;98175.00;10143098;28;20046;-70
2023/01/16 16:27:41;;;;;;;7.68;6.88;;;;;;;4.46;100.00;98145.47;10172404;28;20082;-70
2023/01/16 16:32:37;;;;;;;9.68;7.63;;;;;;;4.47;100.00;98136.22;10153028;28;20245;-70
2023/01/16 16:37:34;;;;;;;7.68;6.97;;;;;;;4.46;100.00;98135.44;10119620;28;20539;-70
2023/01/16 16:42:30;;;;;;;8.15;7.20;;;;;;;4.42;100.00;98123.72;10113141;28;20047;-70
2023/01/16 16:47:29;;;;;;;7.80;6.80;;;;;;;4.39;100.00;98125.19;10131641;28;20049;-70
2023/01/16 16:52:43;;;;;;;8.18;7.47;;;;;;;4.35;100.00;98116.16;10158374;28;20046;-70
2023/01/16 16:57:42;;;;;;;7.88;7.18;;;;;;;4.32;100.00;98108.72;10180034;28;20049;-70
2023/01/16 17:02:39;;;;;;;8.35;7.55;;;;;;;4.33;100.00;98114.94;10149503;28;20057;-70
2023/01/16 17:07:36;;;;;;;8.00;7.25;;;;;;;4.30;100.00;98105.56;10192306;28;20046;-71
2023/01/16 17:12:32;;;;;;;8.40;7.20;;;;;;;4.22;100.00;98093.75;10161628;28;20039;-70
2023/01/16 17:17:29;;;;;;;10.93;8.18;;;;;;;4.15;100.00;98095.44;10190075;28;20229;-70
2023/01/16 17:22:25;;;;;;;8.85;8.15;;;;;;;4.13;100.00;98089.56;10144274;28;20077;-70
2023/01/16 17:27:22;;;;;;;8.70;8.00;;;;;;;4.14;100.00;98080.34;10177618;28;20559;-70
2023/01/16 17:32:29;;;;;;;8.80;8.10;;;;;;;4.14;100.00;98074.94;10118915;28;20074;-70
2023/01/16 17:37:26;;;;;;;14.07;7.85;;;;;;;4.12;100.00;98066.38;10172151;28;20504;-70
2023/01/16 17:47:38;;;;;;;10.35;8.10;;;;;;;4.12;100.00;98050.16;10164935;28;20077;-70
2023/01/16 17:52:35;;;;;;;8.10;7.40;;;;;;;4.12;100.00;98048.22;10157690;28;20069;-70
2023/01/16 17:57:32;;;;;;;10.40;8.65;;;;;;;4.14;100.00;98042.50;10145996;28;20043;-70
2023/01/16 18:02:28;;;;;;;9.88;7.50;;;;;;;4.04;100.00;98030.22;10157170;28;20126;-70
2023/01/16 18:07:25;;;;;;;8.32;7.63;;;;;;;3.97;100.00;98035.41;10136443;28;20046;-70
2023/01/16 18:17:38;;;;;;;9.40;8.43;;;;;;;4.07;100.00;98026.06;10121237;28;20523;-70
2023/01/16 18:22:34;;;;;;;8.98;8.18;;;;;;;4.17;100.00;98025.56;10132748;28;20042;-70
2023/01/16 18:27:31;;;;;;;8.18;7.47;;;;;;;4.20;100.00;98022.16;10116606;28;20497;-70
2023/01/16 18:32:28;;;;;;;7.57;6.80;;;;;;;4.25;100.00;98010.34;10116504;28;20500;-69
2023/01/16 18:37:28;;;;;;;7.85;7.25;;;;;;;4.29;100.00;98006.59;10155489;28;20088;-70
2023/01/16 19:03:28;;;;;;;7.15;6.60;;;;;;;4.33;100.00;97987.78;10122379;28;20121;-70
2023/01/16 19:08:25;;;;;;;7.10;6.50;;;;;;;4.29;100.00;97979.56;10193738;28;20046;-69
2023/01/16 19:13:36;;;;;;;7.25;6.72;;;;;;;4.30;100.00;97970.31;10124091;28;20045;-70
2023/01/16 19:18:33;;;;;;;7.32;6.82;;;;;;;4.29;100.00;97957.91;10168259;28;20512;-69
2023/01/16 19:23:29;;;;;;;7.10;6.50;;;;;;;4.27;100.00;97952.09;10153545;28;20496;-69
2023/01/16 19:28:26;;;;;;;7.70;7.00;;;;;;;4.20;100.00;97943.75;10143830;28;20070;-70
2023/01/16 19:33:22;;;;;;;7.55;6.95;;;;;;;4.17;100.00;97936.31;10154769;28;20505;-69
2023/01/16 19:38:18;;;;;;;7.75;7.07;;;;;;;4.06;100.00;97924.41;10172585;28;20065;-70
2023/01/16 19:48:30;;;;;;;8.38;6.82;;;;;;;3.96;100.00;97910.25;10193193;28;20415;-70
2023/01/16 19:53:26;;;;;;;7.45;6.85;;;;;;;3.99;100.00;97906.88;10165156;28;20049;-69
2023/01/16 19:58:23;;;;;;;7.43;6.70;;;;;;;4.06;100.00;97905.47;10152847;28;20507;-69
2023/01/16 20:03:19;;;;;;;7.25;6.65;;;;;;;4.06;100.00;97884.66;10120558;28;20086;-69
2023/01/16 20:08:15;;;;;;;7.93;6.40;;;;;;;4.07;100.00;97880.03;10160252;28;20520;-69
2023/01/16 20:13:12;;;;;;;6.60;6.00;;;;;;;4.02;100.00;97872.97;10113862;28;20053;-68
2023/01/16 20:18:08;;;;;;;6.82;6.13;;;;;;;4.02;100.00;97861.38;10148621;28;20042;-69
2023/01/16 20:23:04;;;;;;;6.80;6.20;;;;;;;4.07;100.00;97853.00;10157677;28;20493;-69
2023/01/16 20:28:01;;;;;;;7.15;6.00;;;;;;;4.08;100.00;97849.16;10158679;28;20104;-69
2023/01/16 20:32:57;;;;;;;6.03;5.50;;;;;;;4.12;100.00;97839.22;10151767;28;20050;-71
2023/01/16 20:37:54;;;;;;;6.88;6.38;;;;;;;4.13;100.00;97829.97;10198532;28;20054;-71
2023/01/16 20:48:05;;;;;;;7.20;6.40;;;;;;;4.12;100.00;97818.38;10120192;28;20050;-71
2023/01/16 20:53:01;;;;;;;5.93;5.43;;;;;;;4.16;100.00;97807.66;10120760;28;20056;-69
2023/01/16 20:57:58;;;;;;;5.95;5.35;;;;;;;4.16;100.00;97802.25;10119888;28;20051;-69
2023/01/16 21:02:55;;;;;;;7.68;5.13;;;;;;;4.20;100.00;97803.13;10119891;28;20038;-69
2023/01/16 21:07:51;;;;;;;5.93;5.40;;;;;;;4.23;100.00;97805.16;10194917;28;20076;-69
2023/01/16 21:23:17;;;;;;;6.47;5.88;;;;;;;4.22;100.00;97804.38;10122893;28;20074;-69
2023/01/16 21:28:14;;;;;;;6.85;6.20;;;;;;;4.13;100.00;97789.41;10159518;28;20077;-68
2023/01/16 21:33:10;;;;;;;7.18;6.47;;;;;;;4.09;100.00;97785.84;10158038;28;20405;-69
2023/01/16 21:38:07;;;;;;;8.65;6.55;;;;;;;4.11;100.00;97783.59;10130483;28;20074;-69
2023/01/16 21:48:22;;;;;;;6.40;5.80;;;;;;;4.13;100.00;97770.47;10197378;28;20630;-69
2023/01/16 21:53:23;;;;;;;6.30;5.80;;;;;;;4.11;100.00;97767.38;10172006;28;20077;-70
2023/01/16 21:58:30;;;;;;;6.55;5.53;;;;;;;4.03;100.00;97773.69;10157164;28;20419;-70
2023/01/16 22:03:27;;;;;;;7.85;6.10;;;;;;;3.80;100.00;97779.66;10124336;28;20561;-69
2023/01/16 22:08:24;;;;;;;6.97;6.32;;;;;;;3.63;100.00;97779.97;10196680;28;20104;-69
2023/01/16 22:18:36;;;;;;;7.57;6.97;;;;;;;3.59;100.00;97774.44;10158668;28;20060;-70
2023/01/16 22:23:34;;;;;;;7.57;6.90;;;;;;;3.51;100.00;97773.47;10160161;28;20452;-70
2023/01/16 22:28:32;;;;;;;8.20;7.60;;;;;;;3.46;100.00;97771.00;10166215;28;20079;-69
2023/01/16 22:33:28;;;;;;;10.48;9.52;;;;;;;3.43;100.00;97771.69;10123431;28;20046;-70
2023/01/16 22:38:25;;;;;;;10.27;9.55;;;;;;;3.31;100.00;97769.03;10137169;28;20078;-70
2023/01/16 22:48:36;;;;;;;9.88;9.18;;;;;;;3.27;100.00;97763.53;10122013;28;20133;-70
2023/01/16 22:53:34;;;;;;;11.52;10.82;;;;;;;3.26;100.00;97763.88;10133027;28;20042;-70
2023/01/16 22:58:30;;;;;;;11.15;10.40;;;;;;;3.31;100.00;97752.81;10154668;28;20500;-69
2023/01/16 23:03:26;;;;;;;11.10;10.30;;;;;;;3.25;100.00;97754.19;10139552;28;20500;-70
2023/01/16 23:08:23;;;;;;;11.40;10.70;;;;;;;3.26;100.00;97744.97;10114976;28;20046;-69
2023/01/16 23:13:19;;;;;;;11.90;10.93;;;;;;;3.25;100.00;97738.78;10119501;28;20532;-69
2023/01/16 23:18:16;;;;;;;11.35;10.48;;;;;;;3.31;100.00;97736.63;10180772;28;20049;-70
2023/01/16 23:23:12;;;;;;;13.93;12.93;;;;;;;3.29;100.00;97728.06;10154405;28;20122;-70
2023/01/16 23:28:09;;;;;;;16.60;15.30;;;;;;;3.32;100.00;97728.19;10145691;28;20130;-69
2023/01/16 23:33:07;;;;;;;13.25;12.35;;;;;;;3.34;100.00;97727.81;10114417;28;20070;-69
2023/01/16 23:38:04;;;;;;;13.60;12.60;;;;;;;3.32;100.00;97727.41;10157837;28;20093;-69
2023/01/16 23:48:19;;;;;;;13.18;12.38;;;;;;;3.31;100.00;97717.72;10113976;28;20043;-70
2023/01/16 23:53:15;;;;;;;14.70;13.70;;;;;;;3.25;100.00;97706.38;10157855;28;20054;-67
2023/01/16 23:58:12;;;;;;;13.77;12.77;;;;;;;3.31;100.00;97699.59;10153602;28;20125;-67
